Nearby METAR Reports

 

LIBG - Grottaglie(Civ/A, Italy
Distance from station: ΒΑ 13km
Ενημερώθηκε: 06/10/2022 18:50
Αίθριος
Αίθριος
 Ανεμος από Β
Ανεμος: Β 6 km/h
Θερμοκρασία: 19°C
Σημείο Δρόσου: 10°C
Υγρασία: 56%
Βαρόμετρο: 1025 hPa
Περίληψη: Αίθριος
Visibility: greater than 10 km
2022/10/06 16:50 LIBG 061650Z 36003KT CAVOK 19/10 Q1025
LIBH - Marina Di Ginosa, Italy
Distance from station: Δ 33km
Ενημερώθηκε: 06/10/2022 18:55
Αίθριος
Αίθριος
 Ανεμος από ΒΒΑ
Ανεμος: ΒΒΑ 13 km/h
Θερμοκρασία: 21°C
Σημείο Δρόσου: 10°C
Υγρασία: 50%
Βαρόμετρο: 1024 hPa
Περίληψη: Αίθριος
Visibility: greater than 10 km
2022/10/06 16:55 LIBH 061655Z 03007KT CAVOK 21/10 Q1024 RMK BKN BKN200 QUK / QUL / VIS MAR 30 KM VIS MIN 9999
 
LIBV - Gioia Del Colle, Italy
Distance from station: ΒΔ 45km
Ενημερώθηκε: 06/10/2022 18:55
Αίθριος
Αίθριος
 Ανεμος από Β
Ανεμος: Β 13 km/h
Θερμοκρασία: 17°C
Σημείο Δρόσου: 8°C
Υγρασία: 56%
Βαρόμετρο: 1025 hPa
Περίληψη: Αίθριος
Visibility: greater than 10 km
2022/10/06 16:55 LIBV 061655Z 36007KT CAVOK 17/08 Q1025
LIBR - Brindisi/Casale, Italy
Distance from station: ΑΒΑ 62km
Ενημερώθηκε: 06/10/2022 19:20
Μερικώς νεφελώδης
Μερικώς νεφελώδης
 Ανεμος από Β
Ανεμος: Β 17 km/h
Θερμοκρασία: 19°C
Σημείο Δρόσου: 15°C
Υγρασία: 78%
Βαρόμετρο: 1025 hPa
Clouds: Μερικώς νεφελώδης
Visibility: 10 km
Cloud details: Μερικώς νεφελώδης 610 m
2022/10/06 17:20 LIBR 061720Z 35009KT 9999 SCT020 19/15 Q1025
 
LIBN - Lecce (it-Afb), Italy
Distance from station: ΑΝΑ 79km
Ενημερώθηκε: 06/10/2022 18:55
Αίθριος
Αίθριος
 Ανεμος από ΒΒΔ
Ανεμος: ΒΒΔ 11 km/h
Θερμοκρασία: 18°C
Σημείο Δρόσου: 16°C
Υγρασία: 88%
Βαρόμετρο: 1025 hPa
Περίληψη: Αίθριος
Visibility: greater than 10 km
2022/10/06 16:55 LIBN 061655Z 34006KT CAVOK 18/16 Q1025
LIBD - Bari/Palese Macc, Italy
Distance from station: ΒΒΔ 85km
Ενημερώθηκε: 06/10/2022 19:20
Αίθριος
Αίθριος
 Ανεμος από ΔΒΔ
Ανεμος: ΔΒΔ 7 km/h
Θερμοκρασία: 17°C
Σημείο Δρόσου: 10°C
Υγρασία: 64%
Βαρόμετρο: 1026 hPa
Περίληψη: Αίθριος
Visibility: greater than 10 km
2022/10/06 17:20 LIBD 061720Z 29004KT CAVOK 17/10 Q1026